Saint Helena Island, United Kingdom
Current Conditions -  °F | °C
As of 12:50 AM on Sunday 23 Nov 2014 (Local Time) from FHAW Reporting Station
Broken Clouds Broken Clouds  
Wind Chill: 22°   Ceiling: 2900
Heat Index: 22°   Visibility: 6mi
Dew Point: 18°   Wind: 5mph
Humidity: 78%   Direction: 100°E
Pressure: 30"   Gusts: NA
Location:  15.93°S, 5.07°W
Report Text: FHAW 222350Z 10004KT 9999 FEW018 BKN029 22/18 Q1016 BLU
Loading
Personal Weather Stations






























Interactive Weather Map New forecast layout! Learn more

10-Day Weather Forecast

Advertisements
Track Severe Weather on mobile